Terminal Aerodrome Forecast
Issued by NWS

Home | Current Version | Previous Version | Graphics & Text | Print | Product List | Glossary On
Versions: 1 2 3 4 5 6 7 8 9 10 11 12 13 14
000
FTUS43 KGRB 210520
TAFRHI
TAF
KRHI 210520Z 2106/2206 VRB03KT P6SM SCT110
     FM210800 31008G15KT P6SM SCT040
     FM211000 31008G15KT P6SM SCT025 BKN040
      TEMPO 2110/2114 BKN025
     FM211400 34010G17KT P6SM VCSH BKN045
     FM212300 01005KT P6SM SCT035=

USA.gov is the U.S. government's official web portal to all federal, state and local government web resources and services.